This is the latest recevied weather packets stored in our database for station/object DC1NF-6. If no packets are shown the sender has not sent any weather packets the latest 1 day(s).
| Time | Temp. | Humidity | Pressure | Rain* | Wind** | Luminosity | Snow |
|---|---|---|---|---|---|---|---|
| 1778097970 | 14.44° C | 80% | 1006.6 hPa | 0 mm | - | - | - |
| 1778095556 | 15° C | 77% | 1006.3 hPa | 0 mm | - | - | - |
| 1778094349 | 15° C | 78% | 1006 hPa | 0 mm | - | - | - |
| 1778093142 | 14.44° C | 83% | 1005.6 hPa | 0 mm | - | - | - |
| 1778092538 | 14.44° C | 82% | 1005.4 hPa | 0 mm | - | - | - |
| 1778091935 | 15° C | 81% | 1005.3 hPa | 0 mm | - | - | - |
| 1778091331 | 15° C | 82% | 1005.3 hPa | 0 mm | - | - | - |
| 1778084148 | 18.89° C | 64% | 1004.9 hPa | 0 mm | - | - | - |
| 1778083544 | 18.89° C | 61% | 1004.9 hPa | 0 mm | - | - | - |
| 1778082337 | 19.44° C | 60% | 1005.1 hPa | 0 mm | - | - | - |
| 1778079923 | 20° C | 56% | 1004.9 hPa | 0 mm | - | - | - |
| 1778078172 | 20° C | 58% | 1005.1 hPa | 0 mm | - | - | - |
| 1778076965 | 20° C | 59% | 1005.1 hPa | 0 mm | - | - | - |
| 1778076361 | 20° C | 54% | 1005.2 hPa | 0 mm | - | - | - |
| 1778075758 | 20.56° C | 55% | 1005.2 hPa | 0 mm | - | - | - |
| 1778075154 | 20.56° C | 54% | 1005.1 hPa | 0 mm | - | - | - |
| 1778073947 | 21.11° C | 55% | 1005.3 hPa | 0 mm | - | - | - |
| 1778073343 | 20.56° C | 54% | 1005.3 hPa | 0 mm | - | - | - |
| 1778072739 | 20.56° C | 55% | 1005.4 hPa | 0 mm | - | - | - |
| 1778070325 | 21.11° C | 53% | 1005.5 hPa | 0 mm | - | - | - |
| 1778068574 | 21.11° C | 57% | 1005.7 hPa | 0 mm | - | - | - |
| 1778066160 | 20° C | 64% | 1005.9 hPa | 0 mm | - | - | - |
| 1778063746 | 19.44° C | 67% | 1005.8 hPa | 0 mm | - | - | - |
| 1778063143 | 17.78° C | 72% | 1006 hPa | 0 mm | - | - | - |
| 1778061332 | 17.78° C | 76% | 1006 hPa | 0 mm | - | - | - |
* Rain latest hour (hover to see other rain measurements)
** Current wind speed in m/s (hover to see current wind gust speed)